Latest Coastal Weather Observations for Derby

IDW60701

Issued at 1:15 pm WST Friday 29 August 2014 (issued every 10 minutes, with the page automatically refreshed every 10 minutes)

About coastal observations | Map of coastal stations | Coastal observations for WA | Marine services | Other Formats
Station Details ID: 003032 Name: DERBY AERO Lat: -17.37 Lon: 123.66 Height: 6.2 m
Data from the previous 72 hours. | See also: Recent months at Derby
Date/Time
WST
Temp

°C
Wind Pressure Rain
since 9am
mm
Weather Cloud Vis
km
Sea
Height
m
Swell
Dir
 
Speed
knots
Gust
knots
hPa Trend Height
m
Period
s
Dir
29/01:00pm 32.3 ESE 7 11 1014.1 - 0.0 - - - - - - -
29/12:30pm 31.9 NE 6 11 1014.5 - 0.0 - - - - - - -
29/12:00pm 31.7 NE 8 11 1015.2 - 0.0 - - - - - - -
29/11:30am 30.9 ENE 8 11 1015.7 - 0.0 - - - - - - -
29/11:00am 30.3 NE 10 16 1016.4 - 0.0 - - - - - - -
29/10:30am 30.8 NE 9 13 1016.8 - 0.0 - - - - - - -
29/10:00am 29.1 NE 9 13 1017.1 - 0.0 - - - - - - -
29/09:30am 28.2 NE 10 14 1017.3 - 0.0 - - - - - - -
29/09:00am 28.1 ENE 9 13 1017.5 - 0.0 - - - - - - -
29/08:30am 26.5 E 5 9 1017.5 - 0.0 - - - - - - -
29/08:29am 26.5 E 4 9 1017.5 - 0.0 - - - - - - -
29/08:00am 21.5 CALM 0 0 1017.4 - 0.0 - - - - - - -
29/07:30am 18.5 SE 3 4 1017.3 - 0.0 - - - - - - -
29/07:00am 15.8 SSE 5 7 1017.1 - 0.0 - - - - - - -
29/06:30am 14.6 SSE 8 9 1016.4 - 0.0 - - - - - - -
29/06:00am 13.3 SE 7 8 1016.3 - 0.0 - - - - - - -
29/05:30am 11.5 SE 3 5 1016.0 - 0.0 - - - - - - -
29/05:00am 9.8 SSE 4 5 1015.7 - 0.0 - - - - - - -
29/04:30am 10.4 SSE 4 5 1015.7 - 0.0 - - - - - - -
29/04:00am 10.7 SSE 2 5 1015.7 - 0.0 - - - - - - -
29/03:30am 10.5 S 4 4 1015.3 - 0.0 - - - - - - -
29/03:00am 12.3 SSW 4 5 1015.3 - 0.0 - - - - - - -
29/02:30am 13.5 SSW 4 4 1015.5 - 0.0 - - - - - - -
29/02:00am 14.8 SE 3 4 1015.4 - 0.0 - - - - - - -
29/01:30am 17.5 SSE 6 8 1015.6 - 0.0 - - - - - - -
29/01:00am 16.2 SSE 4 5 1015.7 - 0.0 - - - - - - -
29/12:30am 16.3 SE 6 9 1015.9 - 0.0 - - - - - - -
29/12:00am 16.9 S 9 11 1016.0 - 0.0 - - - - - - -
 
Date/Time
WST
Temp

°C
Wind Pressure Rain
since 9am
mm
Weather Cloud Vis
km
Sea
Height
m
Swell
Dir
 
Speed
knots
Gust
knots
hPa Trend Height
m
Period
s
Dir
28/11:30pm 16.2 S 5 7 1016.0 - 0.0 - - - - - - -
28/11:00pm 17.6 SW 4 6 1016.0 - 0.0 - - - - - - -
28/10:30pm 16.3 W 1 4 1015.9 - 0.0 - - - - - - -
28/10:00pm 14.8 N 3 6 1016.0 - 0.0 - - - - - - -
28/09:30pm 17.7 NNE 4 5 1015.7 - 0.0 - - - - - - -
28/09:00pm 17.2 E 1 5 1015.6 - 0.0 - - - - - - -
28/08:30pm 18.8 SE 5 6 1015.4 - 0.0 - - - - - - -
28/08:00pm 18.1 CALM 0 0 1015.0 - 0.0 - - - - - - -
28/07:30pm 19.4 CALM 0 0 1014.8 - 0.0 - - - - - - -
28/07:00pm 20.6 CALM 0 0 1014.3 - 0.0 - - - - - - -
28/06:30pm 23.9 NW 3 6 1013.9 - 0.0 - - - - - - -
28/06:00pm 24.0 NW 7 8 1013.5 - 0.0 - - - - - - -
28/05:30pm 26.8 NNW 6 7 1013.2 - 0.0 - - - - - - -
28/05:00pm 29.0 WNW 9 11 1013.0 - 0.0 - - - - - - -
28/04:30pm 30.0 WNW 11 13 1012.8 - 0.0 - - - - - - -
28/04:00pm 30.8 WNW 12 15 1012.7 - 0.0 - - - - - - -
28/03:30pm 31.0 WNW 13 15 1012.7 - 0.0 - - - - - - -
28/03:00pm 30.6 WNW 14 17 1012.8 - 0.0 - - - - - - -
28/02:30pm 31.1 WNW 15 18 1013.2 - 0.0 - - - - - - -
28/02:00pm 30.6 NW 15 19 1013.5 - 0.0 - - - - - - -
28/01:30pm 30.9 WNW 14 17 1013.7 - 0.0 - - - - - - -
28/01:00pm 31.2 WNW 13 17 1013.9 - 0.0 - - - - - - -
28/12:30pm 31.5 NNE 6 15 1014.4 - 0.0 - - - - - - -
28/12:00pm 30.7 NE 8 12 1015.0 - 0.0 - - - - - - -
28/11:30am 31.0 ENE 7 15 1015.5 - 0.0 - - - - - - -
28/11:00am 30.1 NE 7 15 1016.1 - 0.0 - - - - - - -
28/10:30am 29.6 NNE 9 14 1016.6 - 0.0 - - - - - - -
28/10:00am 29.4 NE 11 15 1016.8 - 0.0 - - - - - - -
28/09:30am 28.7 E 12 16 1016.9 - 0.0 - - - - - - -
28/09:00am 27.1 ENE 11 15 1017.1 - 0.0 - - - - - - -
28/08:30am 25.2 ENE 7 9 1017.1 - 0.0 - - - - - - -
28/08:00am 23.4 E 6 8 1016.9 - 0.0 - - - - - - -
28/07:30am 21.4 E 4 7 1016.6 - 0.0 - - - - - - -
28/07:00am 17.7 E 3 5 1016.2 - 0.0 - - - - - - -
28/06:30am 13.2 ENE 2 6 1015.9 - 0.0 - - - - - - -
28/06:00am 11.9 ENE 3 3 1015.5 - 0.0 - - - - - - -
28/05:30am 11.4 E 4 5 1015.2 - 0.0 - - - - - - -
28/05:00am 11.9 SE 2 3 1014.9 - 0.0 - - - - - - -
28/04:30am 11.4 ESE 4 5 1014.6 - 0.0 - - - - - - -
28/04:00am 13.6 CALM 0 1 1014.6 - 0.0 - - - - - - -
28/03:30am 12.9 E 3 5 1014.4 - 0.0 - - - - - - -
28/03:00am 14.3 SSE 3 4 1014.2 - 0.0 - - - - - - -
28/02:30am 16.6 S 7 8 1014.1 - 0.0 - - - - - - -
28/02:00am 16.8 S 5 7 1014.1 - 0.0 - - - - - - -
28/01:30am 16.7 S 6 9 1014.1 - 0.0 - - - - - - -
28/01:00am 16.9 SSW 6 8 1014.1 - 0.0 - - - - - - -
28/12:30am 17.6 S 9 11 1014.0 - 0.0 - - - - - - -
28/12:00am 17.6 S 10 12 1014.5 - 0.0 - - - - - - -
 
Date/Time
WST
Temp

°C
Wind Pressure Rain
since 9am
mm
Weather Cloud Vis
km
Sea
Height
m
Swell
Dir
 
Speed
knots
Gust
knots
hPa Trend Height
m
Period
s
Dir
27/11:30pm 18.2 S 7 9 1014.9 - 0.0 - - - - - - -
27/11:00pm 19.0 SSE 5 6 1015.0 - 0.0 - - - - - - -
27/10:30pm 18.0 SE 4 6 1015.1 - 0.0 - - - - - - -
27/10:00pm 18.0 S 5 6 1015.0 - 0.0 - - - - - - -
27/09:30pm 18.5 S 5 6 1015.0 - 0.0 - - - - - - -
27/09:00pm 20.2 SSW 4 5 1014.9 - 0.0 - - - - - - -
27/08:30pm 19.2 CALM 0 0 1014.8 - 0.0 - - - - - - -
27/08:00pm 21.7 NW 3 5 1014.7 - 0.0 - - - - - - -
27/07:30pm 21.8 NNW 4 5 1014.5 - 0.0 - - - - - - -
27/07:00pm 22.6 NNW 7 8 1014.0 - 0.0 - - - - - - -
27/06:30pm 24.0 NNW 5 6 1013.6 - 0.0 - - - - - - -
27/06:00pm 24.8 NNW 6 8 1013.3 - 0.0 - - - - - - -
27/05:30pm 27.2 NW 7 9 1013.0 - 0.0 - - - - - - -
27/05:00pm 29.4 NW 10 13 1012.8 - 0.0 - - - - - - -
27/04:30pm 30.4 WNW 11 14 1012.7 - 0.0 - - - - - - -
27/04:00pm 30.6 WNW 14 16 1012.8 - 0.0 - - - - - - -
27/03:30pm 30.7 WNW 15 17 1012.6 - 0.0 - - - - - - -
27/03:00pm 31.1 WNW 15 17 1012.5 - 0.0 - - - - - - -
27/02:30pm 31.0 WNW 14 19 1012.6 - 0.0 - - - - - - -
27/02:00pm 31.2 W 14 17 1012.9 - 0.0 - - - - - - -
27/01:30pm 32.4 ENE 6 9 1013.2 - 0.0 - - - - - - -
27/01:00pm 32.9 E 11 16 1013.5 - 0.0 - - - - - - -
27/12:30pm 32.6 ENE 9 17 1013.9 - 0.0 - - - - - - -
27/12:00pm 31.1 E 8 12 1014.3 - 0.0 - - - - - - -
27/11:30am 31.7 ENE 6 10 1014.9 - 0.0 - - - - - - -
27/11:00am 31.1 NE 11 18 1015.4 - 0.0 - - - - - - -
27/10:30am 30.7 ENE 11 18 1016.0 - 0.0 - - - - - - -
27/10:00am 29.1 E 11 18 1016.5 - 0.0 - - - - - - -
27/09:30am 28.7 ENE 12 17 1016.9 - 0.0 - - - - - - -
27/09:00am 27.6 NE 11 17 1017.0 - 0.0 - - - - - - -
27/08:30am 26.5 NE 11 13 1017.0 - 0.0 - - - - - - -
27/08:00am 25.0 E 8 10 1017.0 - 0.0 - - - - - - -
27/07:30am 23.1 E 9 12 1016.7 - 0.0 - - - - - - -
27/07:00am 19.3 E 8 11 1016.6 - 0.0 - - - - - - -
27/06:30am 16.5 NNE 4 6 1016.3 - 0.0 - - - - - - -
27/06:00am 17.0 NE 5 7 1015.7 - 0.0 - - - - - - -
27/05:30am 19.8 NE 7 10 1015.1 - 0.0 - - - - - - -
27/05:00am 20.3 ESE 11 14 1014.4 - 0.0 - - - - - - -
27/04:30am 19.5 ESE 10 12 1014.2 - 0.0 - - - - - - -
27/04:00am 20.0 ESE 10 12 1014.1 - 0.0 - - - - - - -
27/03:30am 20.1 ESE 9 11 1014.1 - 0.0 - - - - - - -
27/03:00am 19.8 ESE 9 11 1014.1 - 0.0 - - - - - - -
27/02:30am 18.8 ESE 8 9 1014.1 - 0.0 - - - - - - -
27/02:00am 21.1 ESE 9 11 1014.2 - 0.0 - - - - - - -
27/01:30am 21.4 SE 10 13 1014.4 - 0.0 - - - - - - -
27/01:00am 22.1 SE 8 10 1014.5 - 0.0 - - - - - - -
27/12:30am 21.9 SE 9 10 1014.5 - 0.0 - - - - - - -
27/12:00am 20.6 SE 7 8 1014.6 - 0.0 - - - - - - -
 
Date/Time
WST
Temp

°C
Wind Pressure Rain
since 9am
mm
Weather Cloud Vis
km
Sea
Height
m
Swell
Dir
 
Speed
knots
Gust
knots
hPa Trend Height
m
Period
s
Dir
26/11:30pm 20.9 SE 8 9 1014.7 - 0.0 - - - - - - -
26/11:00pm 21.4 SE 8 9 1014.9 - 0.0 - - - - - - -
26/10:30pm 20.9 SE 8 9 1015.1 - 0.0 - - - - - - -
26/10:00pm 20.9 SE 7 9 1015.2 - 0.0 - - - - - - -
26/09:30pm 21.8 SE 8 8 1015.1 - 0.0 - - - - - - -
26/09:00pm 22.2 SE 7 9 1015.1 - 0.0 - - - - - - -
26/08:30pm 22.9 SE 8 10 1015.1 - 0.0 - - - - - - -
26/08:00pm 23.4 SE 8 9 1014.8 - 0.0 - - - - - - -
26/07:30pm 24.3 SE 7 8 1014.5 - 0.0 - - - - - - -
26/07:00pm 23.4 SE 7 8 1014.2 - 0.0 - - - - - - -
26/06:30pm 24.8 SE 6 7 1013.8 - 0.0 - - - - - - -
26/06:00pm 26.9 ESE 5 6 1013.4 - 0.0 - - - - - - -
26/05:30pm 29.9 E 8 10 1013.0 - 0.0 - - - - - - -
26/05:00pm 31.5 E 10 14 1012.7 - 0.0 - - - - - - -
26/04:30pm 32.1 E 11 19 1012.6 - 0.0 - - - - - - -
26/04:00pm 32.6 ESE 9 15 1012.5 - 0.0 - - - - - - -
26/03:30pm 32.5 ESE 9 12 1012.6 - 0.0 - - - - - - -
26/03:00pm 32.8 ENE 10 15 1012.8 - 0.0 - - - - - - -
26/02:30pm 33.1 ENE 7 14 1013.1 - 0.0 - - - - - - -
26/02:00pm 32.7 ESE 11 18 1013.3 - 0.0 - - - - - - -
26/01:30pm 32.0 SE 7 13 1013.6 - 0.0 - - - - - - -

Other Formats:

Comma delimited format used in spreadsheet applications
http://www.bom.gov.au/fwo/IDW60701/IDW60701.95205.axf

JavaScript Object Notation format (JSON) in row-major order
http://www.bom.gov.au/fwo/IDW60701/IDW60701.95205.json